createdAt,value
2022-12-01T00:01:38.502Z,20.33
2022-12-01T00:04:07.028Z,20.83
2022-12-01T00:06:35.449Z,20.90
2022-12-01T00:09:23.030Z,19.80
2022-12-01T00:11:51.471Z,21.43
2022-12-01T00:14:19.894Z,20.40
2022-12-01T00:16:48.346Z,21.07
2022-12-01T00:19:17.780Z,20.93
2022-12-01T00:21:47.482Z,22.10
2022-12-01T00:24:17.285Z,20.37
2022-12-01T00:26:45.662Z,19.23
2022-12-01T00:29:14.140Z,19.20
2022-12-01T00:31:42.677Z,20.97
2022-12-01T00:34:22.294Z,19.13
2022-12-01T00:36:50.705Z,19.73
2022-12-01T00:39:20.477Z,20.93
2022-12-01T00:41:48.933Z,20.23
2022-12-01T00:44:17.318Z,18.63
2022-12-01T00:46:45.734Z,21.17
2022-12-01T00:49:15.216Z,19.57
2022-12-01T00:51:43.661Z,18.97
2022-12-01T00:54:12.152Z,20.17
2022-12-01T00:56:41.937Z,20.63
2022-12-01T00:59:10.434Z,19.83
2022-12-01T01:01:38.972Z,19.90
2022-12-01T01:04:07.583Z,19.53
2022-12-01T01:06:35.962Z,19.90
2022-12-01T01:09:04.442Z,20.43
2022-12-01T01:11:32.965Z,20.13
2022-12-01T01:14:02.768Z,19.87
2022-12-01T01:16:31.689Z,19.20
2022-12-01T01:19:00.180Z,17.27
2022-12-01T01:21:29.018Z,19.43
2022-12-01T01:23:57.447Z,18.70
2022-12-01T01:26:27.488Z,18.63
2022-12-01T01:28:57.790Z,18.30
2022-12-01T01:31:28.763Z,18.07
2022-12-01T01:33:57.559Z,18.87
2022-12-01T01:36:26.623Z,20.13
2022-12-01T01:38:55.574Z,17.83
2022-12-01T01:41:25.132Z,18.43
2022-12-01T01:43:55.928Z,19.53
2022-12-01T01:46:28.916Z,17.47
2022-12-01T01:49:01.162Z,17.97
2022-12-01T01:51:34.614Z,16.83
2022-12-01T01:54:07.432Z,19.43
2022-12-01T01:56:37.394Z,18.33
2022-12-01T01:59:05.927Z,18.70
2022-12-01T02:01:35.857Z,16.87
2022-12-01T02:04:04.554Z,18.93
2022-12-01T02:06:33.190Z,17.83
2022-12-01T02:09:01.605Z,20.53
2022-12-01T02:11:49.365Z,18.13
2022-12-01T02:14:44.142Z,18.73
2022-12-01T02:17:23.578Z,18.27
2022-12-01T02:20:24.635Z,17.03
2022-12-01T02:23:13.023Z,16.53
2022-12-01T02:25:51.493Z,17.37
2022-12-01T02:28:43.309Z,17.77
2022-12-01T02:31:17.797Z,18.13
2022-12-01T02:33:54.331Z,18.97
2022-12-01T02:36:32.011Z,19.57
2022-12-01T02:39:06.776Z,18.23
2022-12-01T02:41:41.104Z,19.27
2022-12-01T02:44:16.537Z,18.77
2022-12-01T02:46:51.642Z,19.90
2022-12-01T02:49:23.886Z,19.27
2022-12-01T02:51:53.835Z,18.40
2022-12-01T02:54:23.648Z,20.70
2022-12-01T02:56:53.926Z,21.40
2022-12-01T02:59:22.495Z,19.73
2022-12-01T03:02:05.395Z,20.77
2022-12-01T03:04:56.990Z,18.23
2022-12-01T03:07:44.678Z,18.97
2022-12-01T03:10:20.113Z,19.13
2022-12-01T03:13:00.697Z,18.57
2022-12-01T03:15:35.855Z,16.87
2022-12-01T03:18:16.613Z,18.57
2022-12-01T03:20:50.908Z,18.07
2022-12-01T03:23:27.623Z,19.13
2022-12-01T03:25:58.912Z,19.47
2022-12-01T03:28:32.114Z,18.70
2022-12-01T03:31:05.160Z,19.57
2022-12-01T03:33:39.067Z,19.60
2022-12-01T03:36:11.868Z,18.77
2022-12-01T03:38:44.868Z,18.57
2022-12-01T03:41:18.739Z,19.67
2022-12-01T03:43:52.275Z,19.87
2022-12-01T03:46:25.581Z,17.63
2022-12-01T03:48:55.563Z,19.30
2022-12-01T03:51:32.653Z,18.70
2022-12-01T03:54:06.768Z,18.27
2022-12-01T03:56:40.114Z,18.20
2022-12-01T03:59:10.912Z,17.23
2022-12-01T04:01:39.385Z,19.30
2022-12-01T04:04:12.480Z,17.37
2022-12-01T04:06:42.977Z,17.50
2022-12-01T04:09:11.509Z,19.30
2022-12-01T04:11:57.260Z,18.70
2022-12-01T04:14:25.704Z,18.40
2022-12-01T04:16:54.134Z,18.13
2022-12-01T04:19:23.909Z,17.27
2022-12-01T04:21:52.344Z,17.20
2022-12-01T04:24:20.831Z,17.30
2022-12-01T04:26:49.292Z,18.77
2022-12-01T04:29:17.722Z,18.27
2022-12-01T04:31:46.235Z,17.70
2022-12-01T04:34:14.682Z,18.77
2022-12-01T04:36:45.056Z,17.90
2022-12-01T04:39:13.482Z,18.17
2022-12-01T04:41:41.894Z,17.87
2022-12-01T04:44:10.940Z,17.80
2022-12-01T04:46:39.737Z,17.87
2022-12-01T04:49:08.491Z,17.87
2022-12-01T04:51:37.321Z,18.37
2022-12-01T04:54:07.192Z,17.57
2022-12-01T04:56:35.593Z,19.33
2022-12-01T04:59:04.026Z,18.33
2022-12-01T05:01:32.612Z,17.80
2022-12-01T05:04:01.105Z,18.13
2022-12-01T05:06:30.383Z,18.23
2022-12-01T05:09:00.904Z,18.87
2022-12-01T05:11:31.988Z,17.07
2022-12-01T05:14:00.648Z,17.63
2022-12-01T05:16:31.698Z,19.07
2022-12-01T05:19:19.941Z,19.13
2022-12-01T05:21:50.404Z,18.07
2022-12-01T05:24:19.814Z,18.80
2022-12-01T05:26:49.892Z,18.27
2022-12-01T05:29:18.344Z,19.10
2022-12-01T05:31:47.165Z,18.27
2022-12-01T05:34:16.226Z,19.30
2022-12-01T05:36:44.743Z,19.83
2022-12-01T05:39:13.163Z,18.30
2022-12-01T05:41:41.536Z,18.07
2022-12-01T05:44:11.332Z,17.30
2022-12-01T05:46:39.788Z,18.63
2022-12-01T05:49:08.187Z,19.87
2022-12-01T05:51:36.599Z,19.67
2022-12-01T05:54:05.359Z,20.40
2022-12-01T05:56:33.832Z,18.53
2022-12-01T05:59:02.429Z,17.87
2022-12-01T06:01:32.281Z,19.17
2022-12-01T06:04:00.851Z,19.70
2022-12-01T06:06:29.303Z,21.47
2022-12-01T06:08:57.711Z,18.90
2022-12-01T06:11:26.258Z,18.70
2022-12-01T06:13:54.653Z,20.50
2022-12-01T06:16:23.110Z,18.43
2022-12-01T06:18:52.951Z,18.37
2022-12-01T06:21:21.576Z,18.17
2022-12-01T06:23:49.980Z,18.77
2022-12-01T06:26:18.826Z,17.50
2022-12-01T06:28:47.268Z,18.10
2022-12-01T06:31:15.691Z,18.73
2022-12-01T06:33:44.106Z,18.00
2022-12-01T06:36:13.986Z,18.50
2022-12-01T06:38:42.463Z,19.00
2022-12-01T06:41:10.867Z,21.13
2022-12-01T06:43:39.320Z,20.23
2022-12-01T06:46:07.834Z,20.90
2022-12-01T06:48:36.555Z,20.60
2022-12-01T06:51:05.379Z,20.20
2022-12-01T06:53:35.208Z,23.03
2022-12-01T06:56:04.619Z,20.53
2022-12-01T06:58:34.545Z,22.13
2022-12-01T07:01:09.508Z,19.43
2022-12-01T07:03:38.018Z,20.83
2022-12-01T07:06:07.056Z,22.27
2022-12-01T07:08:37.047Z,22.13
2022-12-01T07:11:07.285Z,22.17
2022-12-01T07:13:36.722Z,20.33
2022-12-01T07:16:05.973Z,21.73
2022-12-01T07:18:35.790Z,21.17
2022-12-01T07:21:06.062Z,21.93
2022-12-01T07:23:36.240Z,19.37
2022-12-01T07:26:06.677Z,22.30
2022-12-01T07:28:35.406Z,22.00
2022-12-01T07:31:04.924Z,20.67
2022-12-01T07:33:33.716Z,20.37
2022-12-01T07:36:02.305Z,20.23
2022-12-01T07:38:31.490Z,21.53
2022-12-01T07:41:04.618Z,23.53
2022-12-01T07:43:33.496Z,23.83
2022-12-01T07:46:10.193Z,23.03
2022-12-01T07:48:40.449Z,23.20
2022-12-01T07:51:10.452Z,23.97
2022-12-01T07:53:39.233Z,24.47
2022-12-01T07:56:09.590Z,26.17
2022-12-01T07:58:38.522Z,26.63
2022-12-01T08:01:08.403Z,26.67
2022-12-01T08:03:37.216Z,26.27
2022-12-01T08:06:06.950Z,23.50
2022-12-01T08:08:37.081Z,24.00
2022-12-01T08:11:07.422Z,27.10
2022-12-01T08:13:37.418Z,27.57
2022-12-01T08:16:06.478Z,29.27
2022-12-01T08:18:35.379Z,28.57
2022-12-01T08:21:03.869Z,28.17
2022-12-01T08:23:32.360Z,26.00
2022-12-01T08:26:02.685Z,25.57
2022-12-01T08:28:31.658Z,27.33
2022-12-01T08:31:08.491Z,25.93
2022-12-01T08:33:37.112Z,26.27
2022-12-01T08:36:06.297Z,26.87
2022-12-01T08:38:35.333Z,26.27
2022-12-01T08:41:05.114Z,26.83
2022-12-01T08:43:56.712Z,25.73
2022-12-01T08:46:23.947Z,26.37
2022-12-01T08:48:54.838Z,23.83
2022-12-01T08:51:23.230Z,25.30
2022-12-01T08:53:53.620Z,25.47
2022-12-01T08:56:24.226Z,24.63
2022-12-01T08:58:52.902Z,27.33
2022-12-01T09:01:23.787Z,24.47
2022-12-01T09:04:05.297Z,25.70
2022-12-01T09:06:38.650Z,23.73
2022-12-01T09:09:07.547Z,24.53
2022-12-01T09:11:35.977Z,26.13
2022-12-01T09:14:04.642Z,25.10
2022-12-01T09:16:34.523Z,24.33
2022-12-01T09:19:03.203Z,25.23
2022-12-01T09:21:34.553Z,23.40
2022-12-01T09:24:03.217Z,22.97
2022-12-01T09:26:31.800Z,24.50
2022-12-01T09:29:01.852Z,26.23
2022-12-01T09:31:30.844Z,24.97
2022-12-01T09:34:03.063Z,24.13
2022-12-01T09:36:33.023Z,24.10
2022-12-01T09:39:02.361Z,23.67
2022-12-01T09:41:34.083Z,23.90
2022-12-01T09:44:15.706Z,23.73
2022-12-01T09:46:48.105Z,25.60
2022-12-01T09:49:23.557Z,25.03
2022-12-01T09:51:54.159Z,22.57
2022-12-01T09:54:22.871Z,23.73
2022-12-01T09:56:55.315Z,24.57
2022-12-01T09:59:27.512Z,25.37
2022-12-01T10:02:00.192Z,24.77
2022-12-01T10:04:35.806Z,26.27
2022-12-01T10:07:06.450Z,23.83
2022-12-01T10:09:40.240Z,24.27
2022-12-01T10:12:14.833Z,24.90
2022-12-01T10:14:46.449Z,24.00
2022-12-01T10:17:23.013Z,23.70
2022-12-01T10:19:59.520Z,24.77
2022-12-01T10:22:52.205Z,23.53
2022-12-01T10:25:23.683Z,24.37
2022-12-01T10:28:07.706Z,24.37
2022-12-01T10:30:42.419Z,23.03
2022-12-01T10:33:20.257Z,24.13
2022-12-01T10:35:50.692Z,24.13
2022-12-01T10:38:27.355Z,24.93
2022-12-01T10:40:58.456Z,24.10
2022-12-01T10:43:32.684Z,24.70
2022-12-01T10:46:06.787Z,25.60
2022-12-01T10:48:53.959Z,24.33
2022-12-01T10:51:23.874Z,23.13
2022-12-01T10:54:00.163Z,23.60
2022-12-01T10:56:29.350Z,22.63
2022-12-01T10:59:00.714Z,22.97
2022-12-01T11:01:32.165Z,23.57
2022-12-01T11:04:07.078Z,22.87
2022-12-01T11:06:38.508Z,25.67
2022-12-01T11:09:20.273Z,23.03
2022-12-01T11:11:57.793Z,21.43
2022-12-01T11:14:34.207Z,22.07
2022-12-01T11:17:17.658Z,23.27
2022-12-01T11:19:46.182Z,22.63
2022-12-01T11:22:23.111Z,21.47
2022-12-01T11:25:00.616Z,23.03
2022-12-01T11:27:32.581Z,22.47
2022-12-01T11:30:05.802Z,21.37
2022-12-01T11:32:39.236Z,21.67
2022-12-01T11:35:17.917Z,22.53
2022-12-01T11:38:27.249Z,22.43
2022-12-01T11:40:48.946Z,21.10
2022-12-01T11:43:25.026Z,22.27
2022-12-01T11:45:54.567Z,21.20
2022-12-01T11:48:28.569Z,21.13
2022-12-01T11:51:04.013Z,21.87
2022-12-01T11:53:35.648Z,22.13
2022-12-01T11:56:23.576Z,20.03
2022-12-01T11:58:58.441Z,20.60
2022-12-01T12:01:39.948Z,23.20
2022-12-01T12:04:23.970Z,20.70
2022-12-01T12:06:59.610Z,19.20
2022-12-01T12:09:47.805Z,20.37
2022-12-01T12:12:27.582Z,19.03
2022-12-01T12:15:05.404Z,17.73
2022-12-01T12:17:52.906Z,20.23
2022-12-01T12:20:47.784Z,19.43
2022-12-01T12:23:31.491Z,19.70
2022-12-01T12:26:08.631Z,17.63
2022-12-01T12:28:53.016Z,20.80
2022-12-01T12:31:29.249Z,18.00
2022-12-01T12:34:14.364Z,18.80
2022-12-01T12:36:48.103Z,20.23
2022-12-01T12:39:30.153Z,18.90
2022-12-01T12:42:01.811Z,20.77
2022-12-01T12:44:52.605Z,20.43
2022-12-01T12:47:36.423Z,18.47
2022-12-01T12:50:18.383Z,19.70
2022-12-01T12:52:49.245Z,17.70
2022-12-01T12:55:24.083Z,20.27
2022-12-01T12:57:58.531Z,19.37
2022-12-01T13:00:28.993Z,20.13
2022-12-01T13:03:01.657Z,18.43
2022-12-01T13:05:41.662Z,19.43
2022-12-01T13:08:14.998Z,16.80
2022-12-01T13:10:48.980Z,19.73
2022-12-01T13:13:26.589Z,18.93
2022-12-01T13:15:57.968Z,18.10
2022-12-01T13:18:33.715Z,19.67
2022-12-01T13:21:05.035Z,18.47
2022-12-01T13:23:34.680Z,17.37
2022-12-01T13:26:08.051Z,18.67
2022-12-01T13:28:42.058Z,17.60
2022-12-01T13:31:13.443Z,19.10
2022-12-01T13:33:46.562Z,18.63
2022-12-01T13:36:45.307Z,18.50
2022-12-01T13:39:08.795Z,18.33
2022-12-01T13:41:39.630Z,17.63
2022-12-01T13:44:23.626Z,18.40
2022-12-01T13:46:57.538Z,20.00
2022-12-01T13:49:41.974Z,19.50
2022-12-01T13:52:35.907Z,18.53
2022-12-01T13:55:30.055Z,18.87
2022-12-01T13:58:28.251Z,19.80
2022-12-01T14:01:42.993Z,20.87
2022-12-01T14:04:31.842Z,18.80
2022-12-01T14:07:38.255Z,18.13
2022-12-01T14:10:30.176Z,18.23
2022-12-01T14:13:03.221Z,17.43
2022-12-01T14:15:35.700Z,16.23
2022-12-01T14:18:08.855Z,17.73
2022-12-01T14:20:46.368Z,17.03
2022-12-01T14:23:19.013Z,18.50
2022-12-01T14:26:00.949Z,17.43
2022-12-01T14:29:14.206Z,19.73
2022-12-01T14:32:25.603Z,18.63
2022-12-01T14:35:01.647Z,17.47
2022-12-01T14:37:49.362Z,18.60
2022-12-01T14:40:26.734Z,17.00
2022-12-01T14:43:15.593Z,18.70
2022-12-01T14:45:54.103Z,18.10
2022-12-01T14:48:27.795Z,19.17
2022-12-01T14:51:14.722Z,18.03
2022-12-01T14:53:47.768Z,19.17
2022-12-01T14:56:19.599Z,18.97
2022-12-01T14:58:59.376Z,19.47
2022-12-01T15:01:33.088Z,18.90
2022-12-01T15:04:04.353Z,20.50
2022-12-01T15:06:36.639Z,19.23
2022-12-01T15:09:32.661Z,18.37
2022-12-01T15:11:59.159Z,19.10
2022-12-01T15:14:33.346Z,20.00
2022-12-01T15:17:05.085Z,19.40
2022-12-01T15:19:36.991Z,18.47
2022-12-01T15:22:13.503Z,18.97
2022-12-01T15:24:43.034Z,19.53
2022-12-01T15:27:28.886Z,19.07
2022-12-01T15:29:58.500Z,21.90
2022-12-01T15:32:27.797Z,17.70
2022-12-01T15:34:57.438Z,17.97
2022-12-01T15:37:29.667Z,17.57
2022-12-01T15:43:02.593Z,18.03
2022-12-01T15:45:31.308Z,17.70
2022-12-01T15:47:59.794Z,17.83
2022-12-01T15:50:31.135Z,17.30
2022-12-01T15:53:03.756Z,18.47
2022-12-01T15:55:35.211Z,16.73
2022-12-01T15:58:08.432Z,17.47
2022-12-01T16:00:37.271Z,17.90
2022-12-01T16:03:06.089Z,16.97
2022-12-01T16:05:36.815Z,16.73
2022-12-01T16:08:17.090Z,18.50
2022-12-01T16:10:45.692Z,18.07
2022-12-01T16:13:38.852Z,19.00
2022-12-01T16:16:31.880Z,18.77
2022-12-01T16:19:02.648Z,17.83
2022-12-01T16:21:34.816Z,18.37
2022-12-01T16:24:06.739Z,19.63
2022-12-01T16:26:35.266Z,19.43
2022-12-01T16:29:04.136Z,18.47
2022-12-01T16:31:33.433Z,19.47
2022-12-01T16:34:13.884Z,24.17
2022-12-01T16:36:47.618Z,22.07
2022-12-01T16:39:17.918Z,22.83
2022-12-01T16:41:47.824Z,23.03
2022-12-01T16:44:32.184Z,22.67
2022-12-01T16:47:00.706Z,23.40
2022-12-01T16:49:29.197Z,22.27
2022-12-01T16:51:59.301Z,19.63
2022-12-01T16:54:31.066Z,21.63
2022-12-01T16:56:59.603Z,20.77
2022-12-01T16:59:28.094Z,21.40
2022-12-01T17:01:56.633Z,21.13
2022-12-01T17:04:25.192Z,19.97
2022-12-01T17:06:53.714Z,19.77
2022-12-01T17:09:22.632Z,20.37
2022-12-01T17:11:52.433Z,18.53
2022-12-01T17:14:20.915Z,18.57
2022-12-01T17:16:49.475Z,21.17
2022-12-01T17:19:19.206Z,16.87
2022-12-01T17:21:47.673Z,18.10
2022-12-01T17:24:19.066Z,18.23
2022-12-01T17:26:47.880Z,16.33
2022-12-01T17:29:17.692Z,17.00
2022-12-01T17:31:46.227Z,15.13
2022-12-01T17:34:14.657Z,16.67
2022-12-01T17:36:43.148Z,16.47
2022-12-01T17:39:11.579Z,16.93
2022-12-01T17:41:42.052Z,16.40
2022-12-01T17:44:10.546Z,17.77
2022-12-01T17:46:41.745Z,15.53
2022-12-01T17:49:10.614Z,16.17
2022-12-01T17:51:39.474Z,18.93
2022-12-01T17:54:08.432Z,16.20
2022-12-01T17:56:37.035Z,17.37
2022-12-01T17:59:05.550Z,16.60
2022-12-01T18:01:34.014Z,17.70
2022-12-01T18:04:04.121Z,18.47
2022-12-01T18:06:32.544Z,23.33
2022-12-01T18:09:01.648Z,22.17
2022-12-01T18:11:30.217Z,54.07
2022-12-01T18:13:59.361Z,27.53
2022-12-01T18:16:30.632Z,22.00
2022-12-01T18:19:00.634Z,24.67
2022-12-01T18:21:30.562Z,24.30
2022-12-01T18:24:00.653Z,20.60
2022-12-01T18:26:30.334Z,21.67
2022-12-01T18:29:01.481Z,20.53
2022-12-01T18:31:30.774Z,22.33
2022-12-01T18:34:02.610Z,19.67
2022-12-01T18:36:34.497Z,18.83
2022-12-01T18:39:04.303Z,20.87
2022-12-01T18:41:32.792Z,22.10
2022-12-01T18:44:01.209Z,22.13
2022-12-01T18:46:29.999Z,21.20
2022-12-01T18:49:01.975Z,21.00
2022-12-01T18:51:33.996Z,20.93
2022-12-01T18:54:04.309Z,20.93
2022-12-01T18:56:33.431Z,20.73
2022-12-01T18:59:04.856Z,26.67
2022-12-01T19:01:37.014Z,27.97
2022-12-01T19:04:07.595Z,24.10
2022-12-01T19:06:39.544Z,26.07
2022-12-01T19:09:10.075Z,25.50
2022-12-01T19:11:40.426Z,32.53
2022-12-01T19:14:13.122Z,40.17
2022-12-01T19:16:41.854Z,24.33
2022-12-01T19:19:10.994Z,24.13
2022-12-01T19:21:40.786Z,25.33
2022-12-01T19:24:09.507Z,21.40
2022-12-01T19:26:38.211Z,21.17
2022-12-01T19:29:06.840Z,21.20
2022-12-01T19:31:35.343Z,19.73
2022-12-01T19:34:04.749Z,21.07
2022-12-01T19:36:33.473Z,22.93
2022-12-01T19:39:07.507Z,20.90
2022-12-01T19:41:38.602Z,20.87
2022-12-01T19:44:07.383Z,20.47
2022-12-01T19:46:35.853Z,20.97
2022-12-01T19:49:05.574Z,21.70
2022-12-01T19:51:37.804Z,22.70
2022-12-01T19:54:13.851Z,19.43
2022-12-01T19:56:42.542Z,20.33
2022-12-01T19:59:13.034Z,30.40
2022-12-01T20:01:41.983Z,31.80
2022-12-01T20:04:10.560Z,25.97
2022-12-01T20:06:39.325Z,24.37
2022-12-01T20:09:10.471Z,24.03
2022-12-01T20:11:38.921Z,21.53
2022-12-01T20:14:08.397Z,21.90
2022-12-01T20:16:39.006Z,43.90
2022-12-01T20:19:08.159Z,109.33
2022-12-01T20:21:42.128Z,104.17
2022-12-01T20:24:16.398Z,31.57
2022-12-01T20:26:47.094Z,22.83
2022-12-01T20:29:20.443Z,22.00
2022-12-01T20:31:49.929Z,22.30
2022-12-01T20:34:21.296Z,20.83
2022-12-01T20:36:50.606Z,21.07
2022-12-01T20:39:21.141Z,20.23
2022-12-01T20:41:49.782Z,19.37
2022-12-01T20:44:18.747Z,21.13
2022-12-01T20:46:47.522Z,22.23
2022-12-01T20:49:17.747Z,19.93
2022-12-01T20:51:46.838Z,21.03
2022-12-01T20:54:27.704Z,20.13
2022-12-01T20:56:59.243Z,21.87
2022-12-01T20:59:28.409Z,21.90
2022-12-01T21:01:57.288Z,22.53
2022-12-01T21:04:25.892Z,20.37
2022-12-01T21:06:57.481Z,20.67
2022-12-01T21:09:26.527Z,20.63
2022-12-01T21:12:13.130Z,22.17
2022-12-01T21:14:46.587Z,21.97
2022-12-01T21:17:26.203Z,23.83
2022-12-01T21:20:01.562Z,20.70
2022-12-01T21:22:31.301Z,20.97
2022-12-01T21:25:07.941Z,23.30
2022-12-01T21:27:36.426Z,23.97
2022-12-01T21:30:16.842Z,22.83
2022-12-01T21:32:46.614Z,21.37
2022-12-01T21:35:18.868Z,23.33
2022-12-01T21:37:47.959Z,23.03
2022-12-01T21:40:21.958Z,22.37
2022-12-01T21:42:51.386Z,20.60
2022-12-01T21:45:29.429Z,21.37
2022-12-01T21:48:01.507Z,22.50
2022-12-01T21:50:29.979Z,23.73
2022-12-01T21:52:59.215Z,22.57
2022-12-01T21:55:37.910Z,22.00
2022-12-01T21:58:31.179Z,21.77
2022-12-01T22:01:01.451Z,24.10
2022-12-01T22:03:32.879Z,23.47
2022-12-01T22:06:29.645Z,22.43
2022-12-01T22:08:56.430Z,23.27
2022-12-01T22:11:26.382Z,21.60
2022-12-01T22:14:02.030Z,22.23
2022-12-01T22:16:33.301Z,23.40
2022-12-01T22:19:09.324Z,21.90
2022-12-01T22:21:42.300Z,22.77
2022-12-01T22:24:25.652Z,22.97
2022-12-01T22:27:03.794Z,23.57
2022-12-01T22:29:34.838Z,22.30
2022-12-01T22:32:41.293Z,21.50
2022-12-01T22:35:24.785Z,23.00
2022-12-01T22:37:55.198Z,22.00
2022-12-01T22:40:38.959Z,22.80
2022-12-01T22:43:33.200Z,20.77
2022-12-01T22:46:16.101Z,23.50
2022-12-01T22:48:48.380Z,22.67
2022-12-01T22:51:34.567Z,24.73
2022-12-01T22:54:23.914Z,22.10
2022-12-01T22:57:02.628Z,24.67
2022-12-01T22:59:35.218Z,22.57
2022-12-01T23:02:16.589Z,21.53
2022-12-01T23:04:50.867Z,22.50
2022-12-01T23:07:30.012Z,22.83
2022-12-01T23:10:04.819Z,22.40
2022-12-01T23:12:35.107Z,23.10
2022-12-01T23:15:27.989Z,24.37
2022-12-01T23:17:56.544Z,23.43
2022-12-01T23:20:34.647Z,22.70
2022-12-01T23:23:06.209Z,24.77
2022-12-01T23:25:36.004Z,23.13
2022-12-01T23:28:06.614Z,24.50
2022-12-01T23:30:36.917Z,26.00
2022-12-01T23:33:15.488Z,26.33
2022-12-01T23:35:49.378Z,27.07
2022-12-01T23:38:21.023Z,26.07
2022-12-01T23:40:50.667Z,24.07
2022-12-01T23:43:22.439Z,24.83
2022-12-01T23:45:56.634Z,28.27
2022-12-01T23:48:31.050Z,26.77
2022-12-01T23:51:01.005Z,25.97
2022-12-01T23:53:31.029Z,27.67
2022-12-01T23:56:04.585Z,27.10
2022-12-01T23:58:33.078Z,27.80
